createdAt,value
2022-10-19T00:01:11.231Z,92.14
2022-10-19T00:03:38.875Z,92.51
2022-10-19T00:06:27.015Z,92.98
2022-10-19T00:08:59.280Z,93.16
2022-10-19T00:11:28.414Z,92.02
2022-10-19T00:13:56.554Z,92.06
2022-10-19T00:16:24.529Z,92.67
2022-10-19T00:18:51.205Z,92.13
2022-10-19T00:21:19.577Z,92.08
2022-10-19T00:23:46.699Z,92.19
2022-10-19T00:26:13.916Z,92.71
2022-10-19T00:28:41.613Z,92.14
2022-10-19T00:31:15.014Z,91.83
2022-10-19T00:33:44.403Z,92.25
2022-10-19T00:36:36.107Z,92.41
2022-10-19T00:39:05.206Z,92.52
2022-10-19T00:41:33.849Z,92.32
2022-10-19T00:44:28.000Z,91.67
2022-10-19T00:47:01.971Z,92.02
2022-10-19T00:49:33.627Z,92.01
2022-10-19T00:52:10.660Z,92.29
2022-10-19T00:54:41.082Z,91.70
2022-10-19T00:57:08.748Z,92.39
2022-10-19T00:59:37.136Z,91.51
2022-10-19T01:02:05.699Z,91.22
2022-10-19T01:04:36.359Z,91.30
2022-10-19T01:07:05.336Z,91.71
2022-10-19T01:09:31.961Z,91.57
2022-10-19T01:11:58.619Z,92.04
2022-10-19T01:14:28.210Z,91.64
2022-10-19T01:17:11.135Z,92.22
2022-10-19T01:19:56.021Z,91.85
2022-10-19T01:22:40.604Z,92.46
2022-10-19T01:25:42.456Z,91.66
2022-10-19T01:28:40.234Z,91.68
2022-10-19T01:31:28.605Z,91.76
2022-10-19T01:34:08.821Z,93.13
2022-10-19T01:36:53.496Z,92.97
2022-10-19T01:39:52.854Z,92.40
2022-10-19T01:42:39.507Z,93.16
2022-10-19T01:45:09.542Z,93.17
2022-10-19T01:47:42.638Z,93.55
2022-10-19T01:50:28.483Z,93.58
2022-10-19T01:52:56.296Z,92.61
2022-10-19T01:55:26.337Z,92.62
2022-10-19T01:57:59.761Z,92.76
2022-10-19T02:00:28.394Z,94.60
2022-10-19T02:02:55.798Z,93.17
2022-10-19T02:05:30.249Z,93.11
2022-10-19T02:08:01.211Z,94.36
2022-10-19T02:10:29.624Z,93.63
2022-10-19T02:12:57.750Z,94.03
2022-10-19T02:15:27.923Z,94.71
2022-10-19T02:17:57.365Z,94.18
2022-10-19T02:20:24.566Z,94.89
2022-10-19T02:22:51.232Z,94.24
2022-10-19T02:25:18.385Z,94.10
2022-10-19T02:27:45.198Z,93.91
2022-10-19T02:30:15.762Z,93.58
2022-10-19T02:32:44.105Z,94.08
2022-10-19T02:35:12.737Z,93.97
2022-10-19T02:37:40.542Z,93.25
2022-10-19T02:40:08.090Z,93.06
2022-10-19T02:42:44.424Z,93.33
2022-10-19T02:45:21.843Z,93.28
2022-10-19T02:47:55.822Z,92.52
2022-10-19T02:50:23.186Z,92.14
2022-10-19T02:52:49.968Z,91.17
2022-10-19T02:55:16.711Z,90.51
2022-10-19T02:57:43.424Z,90.42
2022-10-19T03:00:11.337Z,89.81
2022-10-19T03:02:38.038Z,90.15
2022-10-19T03:05:05.004Z,90.65
2022-10-19T03:07:32.084Z,89.37
2022-10-19T03:09:59.078Z,89.39
2022-10-19T03:12:25.821Z,89.73
2022-10-19T03:14:52.561Z,90.23
2022-10-19T03:17:19.393Z,90.55
2022-10-19T03:19:46.219Z,89.53
2022-10-19T03:22:13.913Z,90.30
2022-10-19T03:24:40.757Z,90.26
2022-10-19T03:27:07.437Z,90.99
2022-10-19T03:29:34.170Z,90.23
2022-10-19T03:32:00.919Z,90.60
2022-10-19T03:34:27.601Z,89.59
2022-10-19T03:36:54.342Z,89.45
2022-10-19T03:39:21.084Z,90.04
2022-10-19T03:41:47.972Z,90.15
2022-10-19T03:44:14.726Z,90.60
2022-10-19T03:46:41.606Z,90.22
2022-10-19T03:49:09.357Z,90.28
2022-10-19T03:51:36.546Z,90.37
2022-10-19T03:54:07.105Z,90.38
2022-10-19T03:56:35.563Z,89.47
2022-10-19T03:59:03.477Z,89.69
2022-10-19T04:01:36.148Z,89.11
2022-10-19T04:04:05.933Z,88.30
2022-10-19T04:06:35.991Z,88.07
2022-10-19T04:09:04.300Z,88.02
2022-10-19T04:11:33.380Z,88.07
2022-10-19T04:14:00.569Z,88.26
2022-10-19T04:16:29.656Z,88.25
2022-10-19T04:18:56.694Z,88.34
2022-10-19T04:21:23.383Z,88.17
2022-10-19T04:23:57.339Z,88.02
2022-10-19T04:26:24.171Z,88.15
2022-10-19T04:28:50.959Z,87.41
2022-10-19T04:31:17.738Z,86.81
2022-10-19T04:36:12.249Z,85.33
2022-10-19T04:38:39.014Z,84.45
2022-10-19T04:41:12.400Z,84.25
2022-10-19T04:43:39.506Z,84.24
2022-10-19T04:46:09.201Z,84.13
2022-10-19T04:48:37.323Z,84.73
2022-10-19T04:51:05.090Z,84.81
2022-10-19T04:53:33.151Z,84.71
2022-10-19T04:56:00.275Z,84.60
2022-10-19T04:58:27.565Z,83.75
2022-10-19T05:00:54.335Z,83.87
2022-10-19T05:03:21.060Z,83.27
2022-10-19T05:05:47.760Z,82.22
2022-10-19T05:08:14.450Z,82.58
2022-10-19T05:10:44.256Z,82.15
2022-10-19T05:13:13.723Z,82.78
2022-10-19T05:15:40.468Z,81.97
2022-10-19T05:18:07.225Z,82.31
2022-10-19T05:20:33.987Z,80.43
2022-10-19T05:23:04.746Z,80.33
2022-10-19T05:25:33.985Z,81.22
2022-10-19T05:28:00.751Z,80.63
2022-10-19T05:30:27.474Z,80.73
2022-10-19T05:32:54.252Z,80.42
2022-10-19T05:35:22.677Z,81.26
2022-10-19T05:37:54.462Z,80.61
2022-10-19T05:40:21.317Z,80.59
2022-10-19T05:42:47.965Z,80.43
2022-10-19T05:45:14.773Z,79.09
2022-10-19T05:47:41.445Z,78.72
2022-10-19T05:50:08.803Z,77.33
2022-10-19T05:52:35.481Z,77.41
2022-10-19T05:55:02.163Z,77.31
2022-10-19T05:57:28.796Z,75.44
2022-10-19T05:59:58.409Z,75.59
2022-10-19T06:02:25.090Z,75.07
2022-10-19T06:04:51.797Z,74.19
2022-10-19T06:07:18.576Z,72.87
2022-10-19T06:09:46.106Z,73.43
2022-10-19T06:12:14.108Z,73.19
2022-10-19T06:14:43.082Z,73.96
2022-10-19T06:17:09.953Z,73.00
2022-10-19T06:19:36.845Z,71.79
2022-10-19T06:22:03.598Z,70.90
2022-10-19T06:24:30.502Z,70.82
2022-10-19T06:26:57.265Z,72.24
2022-10-19T06:29:23.935Z,71.19
2022-10-19T06:31:52.107Z,70.93
2022-10-19T06:34:19.032Z,70.04
2022-10-19T06:36:45.840Z,71.77
2022-10-19T06:39:12.502Z,72.13
2022-10-19T06:41:39.312Z,72.07
2022-10-19T06:44:18.294Z,72.26
2022-10-19T06:46:45.021Z,73.19
2022-10-19T06:49:13.108Z,72.30
2022-10-19T06:51:40.714Z,72.05
2022-10-19T06:54:07.906Z,70.05
2022-10-19T06:56:34.755Z,69.66
2022-10-19T06:59:01.469Z,69.45
2022-10-19T07:01:28.264Z,69.57
2022-10-19T07:03:55.421Z,70.68
2022-10-19T07:06:22.918Z,70.80
2022-10-19T07:08:49.714Z,71.41
2022-10-19T07:11:19.216Z,71.07
2022-10-19T07:13:46.017Z,71.01
2022-10-19T07:16:18.009Z,72.44
2022-10-19T07:18:49.402Z,72.45
2022-10-19T07:21:17.155Z,73.87
2022-10-19T07:23:45.635Z,73.82
2022-10-19T07:26:23.454Z,73.73
2022-10-19T07:28:50.868Z,73.90
2022-10-19T07:31:22.118Z,70.66
2022-10-19T07:33:53.845Z,72.40
2022-10-19T07:36:21.068Z,73.85
2022-10-19T07:38:47.862Z,74.22
2022-10-19T07:41:16.868Z,75.17
2022-10-19T07:43:45.209Z,75.98
2022-10-19T07:46:15.490Z,75.67
2022-10-19T07:48:42.827Z,75.58
2022-10-19T07:51:12.011Z,74.06
2022-10-19T07:53:39.169Z,74.80
2022-10-19T07:56:27.109Z,73.09
2022-10-19T07:58:56.042Z,73.72
2022-10-19T08:01:25.771Z,73.32
2022-10-19T08:04:43.350Z,73.87
2022-10-19T08:06:41.450Z,73.85
2022-10-19T08:09:08.241Z,74.24
2022-10-19T08:11:35.758Z,74.67
2022-10-19T08:14:03.334Z,74.68
2022-10-19T08:16:41.710Z,74.51
2022-10-19T08:19:10.565Z,73.63
2022-10-19T08:21:39.190Z,73.80
2022-10-19T08:24:07.329Z,73.60
2022-10-19T08:26:35.679Z,73.02
2022-10-19T08:29:07.696Z,73.04
2022-10-19T08:31:34.971Z,72.56
2022-10-19T08:34:02.196Z,72.09
2022-10-19T08:36:31.322Z,71.36
2022-10-19T08:38:58.885Z,71.70
2022-10-19T08:41:40.675Z,70.66
2022-10-19T08:44:29.100Z,70.41
2022-10-19T08:47:14.201Z,70.14
2022-10-19T08:49:41.960Z,70.89
2022-10-19T08:52:16.379Z,69.91
2022-10-19T08:54:54.602Z,70.95
2022-10-19T08:57:45.996Z,70.61
2022-10-19T09:03:54.338Z,70.25
2022-10-19T09:06:31.949Z,71.44
2022-10-19T09:08:59.613Z,71.52
2022-10-19T09:11:35.432Z,70.90
2022-10-19T09:14:14.988Z,71.57
2022-10-19T09:16:42.553Z,72.47
2022-10-19T09:19:32.039Z,73.45
2022-10-19T09:22:06.417Z,74.46
2022-10-19T09:24:52.938Z,74.21
2022-10-19T09:27:24.853Z,72.52
2022-10-19T09:29:56.812Z,71.66
2022-10-19T09:32:38.667Z,71.08
2022-10-19T09:35:47.040Z,71.18
2022-10-19T09:38:19.923Z,72.25
2022-10-19T09:40:46.949Z,70.78
2022-10-19T09:43:20.853Z,69.52
2022-10-19T09:46:20.037Z,70.58
2022-10-19T09:48:52.329Z,69.59
2022-10-19T09:51:21.113Z,70.82
2022-10-19T09:53:52.094Z,70.45
2022-10-19T09:56:21.799Z,69.96
2022-10-19T09:58:51.288Z,69.64
2022-10-19T10:01:41.979Z,69.00
2022-10-19T10:04:18.544Z,69.48
2022-10-19T10:06:48.334Z,68.89
2022-10-19T10:09:17.474Z,69.70
2022-10-19T10:11:48.208Z,68.98
2022-10-19T10:14:25.664Z,71.62
2022-10-19T10:16:57.599Z,71.38
2022-10-19T10:19:28.953Z,71.67
2022-10-19T10:21:55.998Z,70.19
2022-10-19T10:24:25.616Z,69.34
2022-10-19T10:26:55.894Z,66.83
2022-10-19T10:29:24.771Z,67.55
2022-10-19T10:32:00.622Z,68.16
2022-10-19T10:34:49.416Z,68.16
2022-10-19T10:37:39.069Z,68.64
2022-10-19T10:40:18.807Z,68.37
2022-10-19T10:42:50.541Z,67.54
2022-10-19T10:45:29.303Z,67.60
2022-10-19T10:47:58.146Z,67.25
2022-10-19T10:50:32.656Z,66.60
2022-10-19T10:53:05.112Z,67.49
2022-10-19T10:55:33.282Z,66.44
2022-10-19T10:58:18.567Z,66.30
2022-10-19T11:00:47.006Z,66.01
2022-10-19T11:03:23.861Z,66.99
2022-10-19T11:05:57.563Z,68.34
2022-10-19T11:08:49.421Z,69.43
2022-10-19T11:11:39.877Z,69.25
2022-10-19T11:14:27.658Z,69.13
2022-10-19T11:16:58.046Z,69.83
2022-10-19T11:19:41.182Z,71.16
2022-10-19T11:22:28.828Z,69.47
2022-10-19T11:25:34.047Z,69.55
2022-10-19T11:28:18.908Z,69.39
2022-10-19T11:30:51.554Z,68.94
2022-10-19T11:33:48.636Z,69.25
2022-10-19T11:36:50.861Z,70.06
2022-10-19T11:39:38.986Z,69.53
2022-10-19T11:42:30.685Z,70.12
2022-10-19T11:45:28.513Z,70.07
2022-10-19T11:48:03.723Z,70.38
2022-10-19T11:51:21.446Z,70.48
2022-10-19T11:54:09.967Z,71.09
2022-10-19T11:57:02.835Z,69.24
2022-10-19T11:59:36.828Z,68.36
2022-10-19T12:02:12.358Z,68.86
2022-10-19T12:04:41.760Z,67.91
2022-10-19T12:07:45.411Z,67.39
2022-10-19T12:10:23.953Z,66.43
2022-10-19T12:12:58.973Z,66.46
2022-10-19T12:15:37.820Z,67.54
2022-10-19T12:18:09.894Z,67.75
2022-10-19T12:20:46.984Z,68.87
2022-10-19T12:23:39.029Z,69.54
2022-10-19T12:26:14.893Z,70.03
2022-10-19T12:28:46.961Z,70.41
2022-10-19T12:31:14.988Z,71.35
2022-10-19T12:34:09.421Z,72.17
2022-10-19T12:36:52.286Z,73.33
2022-10-19T12:39:46.674Z,74.35
2022-10-19T12:42:16.006Z,74.07
2022-10-19T12:44:58.744Z,74.59
2022-10-19T12:47:25.810Z,74.57
2022-10-19T12:49:55.648Z,73.90
2022-10-19T12:52:44.565Z,72.81
2022-10-19T12:55:12.946Z,71.60
2022-10-19T12:57:40.868Z,72.77
2022-10-19T13:00:32.670Z,74.01
2022-10-19T13:03:04.851Z,73.60
2022-10-19T13:05:33.130Z,74.18
2022-10-19T13:08:08.111Z,73.35
2022-10-19T13:10:37.760Z,73.37
2022-10-19T13:13:04.705Z,73.80
2022-10-19T13:15:34.396Z,73.70
2022-10-19T13:18:42.546Z,73.46
2022-10-19T13:21:09.294Z,73.62
2022-10-19T13:23:40.475Z,73.00
2022-10-19T13:26:32.930Z,72.88
2022-10-19T13:28:59.728Z,72.91
2022-10-19T13:31:31.441Z,72.31
2022-10-19T13:33:58.762Z,73.01
2022-10-19T13:36:26.565Z,73.70
2022-10-19T13:38:59.340Z,73.70
2022-10-19T13:41:38.425Z,73.44
2022-10-19T13:44:12.194Z,73.02
2022-10-19T13:46:44.531Z,72.77
2022-10-19T13:49:26.738Z,72.12
2022-10-19T13:52:37.515Z,71.23
2022-10-19T13:55:10.364Z,71.12
2022-10-19T13:58:14.288Z,71.51
2022-10-19T14:01:08.241Z,71.03
2022-10-19T14:03:42.941Z,71.48
2022-10-19T14:06:42.507Z,70.78
2022-10-19T14:09:24.013Z,68.87
2022-10-19T14:11:52.673Z,68.73
2022-10-19T14:14:24.581Z,68.85
2022-10-19T14:16:54.441Z,68.92
2022-10-19T14:19:28.299Z,69.08
2022-10-19T14:22:00.962Z,73.61
2022-10-19T14:24:31.964Z,74.33
2022-10-19T14:27:07.020Z,73.87
2022-10-19T14:29:50.380Z,73.79
2022-10-19T14:32:20.976Z,73.85
2022-10-19T14:34:49.189Z,74.09
2022-10-19T14:37:26.804Z,73.58
2022-10-19T14:40:17.909Z,72.57
2022-10-19T14:42:46.242Z,72.90
2022-10-19T14:45:25.006Z,72.20
2022-10-19T14:48:07.025Z,71.57
2022-10-19T14:50:51.567Z,71.96
2022-10-19T14:53:30.601Z,71.65
2022-10-19T14:56:02.445Z,71.93
2022-10-19T14:58:35.891Z,71.42
2022-10-19T15:01:02.899Z,71.04
2022-10-19T15:03:30.379Z,71.82
2022-10-19T15:06:03.715Z,71.77
2022-10-19T15:08:37.782Z,72.47
2022-10-19T15:11:06.806Z,72.92
2022-10-19T15:13:40.335Z,74.46
2022-10-19T15:16:26.879Z,75.35
2022-10-19T15:18:53.756Z,76.04
2022-10-19T15:21:21.616Z,76.04
2022-10-19T15:23:50.863Z,76.38
2022-10-19T15:26:21.797Z,75.41
2022-10-19T15:28:49.470Z,75.78
2022-10-19T15:31:26.319Z,76.18
2022-10-19T15:33:56.812Z,75.32
2022-10-19T15:36:25.111Z,74.45
2022-10-19T15:39:06.120Z,75.62
2022-10-19T15:41:44.490Z,75.47
2022-10-19T15:44:40.675Z,75.05
2022-10-19T15:47:16.531Z,75.22
2022-10-19T15:49:43.203Z,75.19
2022-10-19T15:52:22.011Z,76.47
2022-10-19T15:54:53.596Z,77.15
2022-10-19T15:57:37.975Z,76.93
2022-10-19T16:00:17.380Z,76.30
2022-10-19T16:02:44.435Z,76.50
2022-10-19T16:05:11.635Z,76.78
2022-10-19T16:07:40.361Z,75.77
2022-10-19T16:10:08.304Z,76.24
2022-10-19T16:12:35.114Z,75.97
2022-10-19T16:15:01.825Z,76.21
2022-10-19T16:17:28.516Z,76.90
2022-10-19T16:19:55.258Z,78.07
2022-10-19T16:22:21.989Z,78.25
2022-10-19T16:24:48.723Z,78.20
2022-10-19T16:27:16.478Z,78.99
2022-10-19T16:29:44.408Z,78.74
2022-10-19T16:32:11.186Z,78.02
2022-10-19T16:34:38.191Z,78.11
2022-10-19T16:37:07.052Z,77.54
2022-10-19T16:39:34.632Z,77.95
2022-10-19T16:42:01.385Z,77.83
2022-10-19T16:44:28.024Z,77.94
2022-10-19T16:46:57.333Z,77.14
2022-10-19T16:49:24.122Z,76.78
2022-10-19T16:51:53.230Z,75.64
2022-10-19T16:54:23.389Z,76.14
2022-10-19T16:56:50.156Z,75.93
2022-10-19T16:59:18.757Z,75.39
2022-10-19T17:01:46.733Z,76.69
2022-10-19T17:04:15.341Z,76.95
2022-10-19T17:06:42.361Z,76.23
2022-10-19T17:11:56.058Z,78.70
2022-10-19T17:14:22.780Z,77.78
2022-10-19T17:16:49.635Z,78.06
2022-10-19T17:19:16.613Z,78.38
2022-10-19T17:21:43.909Z,77.64
2022-10-19T17:24:21.705Z,78.03
2022-10-19T17:26:50.784Z,77.40
2022-10-19T17:29:18.159Z,77.45
2022-10-19T17:31:44.888Z,77.67
2022-10-19T17:34:11.917Z,78.05
2022-10-19T17:36:46.876Z,78.94
2022-10-19T17:39:19.690Z,78.93
2022-10-19T17:41:48.678Z,79.63
2022-10-19T17:44:16.898Z,80.35
2022-10-19T17:46:43.906Z,79.54
2022-10-19T17:49:11.517Z,80.08
2022-10-19T17:51:39.522Z,79.97
2022-10-19T17:54:11.687Z,79.53
2022-10-19T17:56:39.109Z,80.08
2022-10-19T17:59:08.845Z,80.93
2022-10-19T18:01:36.918Z,80.52
2022-10-19T18:04:03.989Z,80.00
2022-10-19T18:06:32.909Z,80.93
2022-10-19T18:09:01.385Z,80.46
2022-10-19T18:11:36.005Z,82.82
2022-10-19T18:14:03.773Z,82.69
2022-10-19T18:16:33.564Z,82.34
2022-10-19T18:19:02.202Z,82.58
2022-10-19T18:21:35.380Z,83.47
2022-10-19T18:24:02.828Z,84.10
2022-10-19T18:26:32.049Z,83.56
2022-10-19T18:28:59.793Z,83.06
2022-10-19T18:31:29.470Z,82.75
2022-10-19T18:34:04.498Z,83.60
2022-10-19T18:36:32.148Z,84.75
2022-10-19T18:39:01.013Z,85.67
2022-10-19T18:41:29.676Z,85.91
2022-10-19T18:44:03.211Z,85.23
2022-10-19T18:46:30.073Z,85.55
2022-10-19T18:48:56.683Z,85.03
2022-10-19T18:51:24.190Z,86.18
2022-10-19T18:53:51.239Z,86.24
2022-10-19T18:56:20.660Z,85.51
2022-10-19T18:58:47.583Z,84.80
2022-10-19T19:01:14.341Z,85.94
2022-10-19T19:03:46.638Z,86.20
2022-10-19T19:06:19.415Z,86.91
2022-10-19T19:08:46.622Z,86.73
2022-10-19T19:11:14.512Z,87.50
2022-10-19T19:13:42.614Z,86.81
2022-10-19T19:16:09.747Z,87.38
2022-10-19T19:18:37.876Z,86.90
2022-10-19T19:21:12.958Z,86.88
2022-10-19T19:23:39.722Z,86.80
2022-10-19T19:26:13.396Z,85.63
2022-10-19T19:28:46.282Z,86.01
2022-10-19T19:31:18.359Z,85.58
2022-10-19T19:33:48.730Z,86.19
2022-10-19T19:36:17.170Z,86.64
2022-10-19T19:38:44.918Z,86.72
2022-10-19T19:41:15.478Z,86.33
2022-10-19T19:43:45.839Z,85.43
2022-10-19T19:46:17.156Z,85.38
2022-10-19T19:48:47.441Z,85.14
2022-10-19T19:51:17.305Z,85.67
2022-10-19T19:53:47.030Z,85.67
2022-10-19T19:56:18.681Z,86.29
2022-10-19T19:58:49.762Z,85.66
2022-10-19T20:01:25.062Z,85.87
2022-10-19T20:03:54.810Z,85.75
2022-10-19T20:06:25.964Z,85.99
2022-10-19T20:08:53.577Z,85.58
2022-10-19T20:11:20.552Z,85.96
2022-10-19T20:13:47.402Z,85.60
2022-10-19T20:16:26.590Z,84.70
2022-10-19T20:19:07.203Z,84.64
2022-10-19T20:21:34.124Z,85.19
2022-10-19T20:24:03.160Z,85.86
2022-10-19T20:26:30.245Z,85.55
2022-10-19T20:28:56.995Z,84.02
2022-10-19T20:31:24.201Z,81.86
2022-10-19T20:33:51.109Z,81.32
2022-10-19T20:36:25.452Z,81.75
2022-10-19T20:38:54.834Z,80.42
2022-10-19T20:41:24.459Z,80.03
2022-10-19T20:43:52.400Z,80.62
2022-10-19T20:46:30.048Z,78.97
2022-10-19T20:48:59.738Z,76.01
2022-10-19T20:51:32.617Z,76.42
2022-10-19T20:54:01.765Z,77.65
2022-10-19T20:56:33.411Z,76.63
2022-10-19T20:59:06.271Z,75.95
2022-10-19T21:01:34.759Z,76.66
2022-10-19T21:04:04.615Z,76.74
2022-10-19T21:06:34.052Z,76.79
2022-10-19T21:09:01.208Z,77.73
2022-10-19T21:11:32.224Z,78.81
2022-10-19T21:14:01.772Z,79.14
2022-10-19T21:16:37.666Z,78.48
2022-10-19T21:19:07.195Z,77.86
2022-10-19T21:21:36.575Z,78.81
2022-10-19T21:24:12.066Z,78.60
2022-10-19T21:26:39.610Z,77.17
2022-10-19T21:29:09.594Z,77.06
2022-10-19T21:31:38.281Z,76.83
2022-10-19T21:34:06.301Z,77.60
2022-10-19T21:36:33.084Z,78.08
2022-10-19T21:39:00.007Z,78.74
2022-10-19T21:41:26.900Z,78.02
2022-10-19T21:43:54.795Z,76.91
2022-10-19T21:46:23.189Z,75.77
2022-10-19T21:51:42.145Z,78.73
2022-10-19T21:54:12.251Z,79.19
2022-10-19T21:56:38.994Z,78.52
2022-10-19T21:59:05.757Z,78.63
2022-10-19T22:01:38.742Z,80.00
2022-10-19T22:04:13.366Z,80.46
2022-10-19T22:06:40.948Z,79.76
2022-10-19T22:09:09.579Z,79.53
2022-10-19T22:11:36.619Z,78.70
2022-10-19T22:14:04.942Z,77.92
2022-10-19T22:16:33.249Z,77.48
2022-10-19T22:18:59.923Z,76.49
2022-10-19T22:21:29.976Z,76.74
2022-10-19T22:24:02.189Z,76.44
2022-10-19T22:26:31.909Z,76.78
2022-10-19T22:29:00.463Z,74.90
2022-10-19T22:31:29.574Z,74.37
2022-10-19T22:33:56.481Z,74.81
2022-10-19T22:36:23.126Z,75.42
2022-10-19T22:38:49.883Z,75.35
2022-10-19T22:41:16.569Z,76.44
2022-10-19T22:43:43.313Z,75.83
2022-10-19T22:46:09.984Z,76.37
2022-10-19T22:48:36.922Z,77.65
2022-10-19T22:51:03.688Z,77.51
2022-10-19T22:53:30.415Z,77.02
2022-10-19T22:55:57.056Z,76.61
2022-10-19T22:58:23.715Z,77.11
2022-10-19T23:01:14.303Z,76.64
2022-10-19T23:03:41.474Z,76.96
2022-10-19T23:06:10.449Z,77.75
2022-10-19T23:08:37.405Z,77.18
2022-10-19T23:11:04.766Z,76.62
2022-10-19T23:13:31.428Z,76.68
2022-10-19T23:15:58.048Z,75.92
2022-10-19T23:18:24.883Z,75.92
2022-10-19T23:21:00.009Z,77.83
2022-10-19T23:23:27.306Z,77.95
2022-10-19T23:26:13.607Z,77.37
2022-10-19T23:28:43.406Z,78.86
2022-10-19T23:31:24.342Z,78.12
2022-10-19T23:33:53.096Z,78.72
2022-10-19T23:36:22.221Z,79.06
2022-10-19T23:38:50.950Z,78.15
2022-10-19T23:41:18.697Z,77.73
2022-10-19T23:43:45.478Z,77.44
2022-10-19T23:46:12.863Z,77.56
2022-10-19T23:48:39.999Z,76.89
2022-10-19T23:51:09.539Z,77.51
2022-10-19T23:53:40.879Z,77.76
2022-10-19T23:56:18.729Z,78.04
2022-10-19T23:58:46.288Z,78.34
